sensor_id;sensor_type;location;lat;lon;timestamp;P1;durP1;ratioP1;P2;durP2;ratioP2
11986;SDS011;6053;51.382;6.768;2023-06-14T00:02:25;4.50;;;2.10;;
11986;SDS011;6053;51.382;6.768;2023-06-14T00:04:56;1.88;;;1.70;;
11986;SDS011;6053;51.382;6.768;2023-06-14T00:07:33;2.00;;;1.75;;
11986;SDS011;6053;51.382;6.768;2023-06-14T00:10:03;2.35;;;1.90;;
11986;SDS011;6053;51.382;6.768;2023-06-14T00:12:34;2.27;;;1.90;;
11986;SDS011;6053;51.382;6.768;2023-06-14T00:15:05;1.90;;;1.80;;
11986;SDS011;6053;51.382;6.768;2023-06-14T00:17:36;2.50;;;1.90;;
11986;SDS011;6053;51.382;6.768;2023-06-14T00:20:06;1.80;;;1.60;;
11986;SDS011;6053;51.382;6.768;2023-06-14T00:22:37;3.72;;;1.77;;
11986;SDS011;6053;51.382;6.768;2023-06-14T00:25:09;1.90;;;1.70;;
11986;SDS011;6053;51.382;6.768;2023-06-14T00:27:55;2.05;;;1.88;;
11986;SDS011;6053;51.382;6.768;2023-06-14T00:30:27;1.73;;;1.63;;
11986;SDS011;6053;51.382;6.768;2023-06-14T00:32:58;2.35;;;1.90;;
11986;SDS011;6053;51.382;6.768;2023-06-14T00:35:28;2.50;;;1.80;;
11986;SDS011;6053;51.382;6.768;2023-06-14T00:37:58;4.13;;;1.90;;
11986;SDS011;6053;51.382;6.768;2023-06-14T00:40:29;1.97;;;1.70;;
11986;SDS011;6053;51.382;6.768;2023-06-14T00:42:58;1.80;;;1.70;;
11986;SDS011;6053;51.382;6.768;2023-06-14T00:45:28;2.57;;;1.80;;
11986;SDS011;6053;51.382;6.768;2023-06-14T00:48:02;1.95;;;1.80;;
11986;SDS011;6053;51.382;6.768;2023-06-14T00:50:37;3.15;;;2.10;;
11986;SDS011;6053;51.382;6.768;2023-06-14T00:53:12;3.08;;;1.90;;
11986;SDS011;6053;51.382;6.768;2023-06-14T00:55:42;2.85;;;1.88;;
11986;SDS011;6053;51.382;6.768;2023-06-14T00:58:11;2.30;;;1.75;;
11986;SDS011;6053;51.382;6.768;2023-06-14T01:00:41;2.20;;;1.83;;
11986;SDS011;6053;51.382;6.768;2023-06-14T01:03:10;1.92;;;1.80;;
11986;SDS011;6053;51.382;6.768;2023-06-14T01:05:41;3.40;;;1.90;;
11986;SDS011;6053;51.382;6.768;2023-06-14T01:08:14;2.38;;;1.95;;
11986;SDS011;6053;51.382;6.768;2023-06-14T01:10:53;2.00;;;1.80;;
11986;SDS011;6053;51.382;6.768;2023-06-14T01:13:32;2.95;;;1.95;;
11986;SDS011;6053;51.382;6.768;2023-06-14T01:16:06;2.22;;;1.88;;
11986;SDS011;6053;51.382;6.768;2023-06-14T01:18:38;1.93;;;1.83;;
11986;SDS011;6053;51.382;6.768;2023-06-14T01:21:20;2.00;;;1.80;;
11986;SDS011;6053;51.382;6.768;2023-06-14T01:23:52;2.20;;;2.00;;
11986;SDS011;6053;51.382;6.768;2023-06-14T01:26:22;2.30;;;1.98;;
11986;SDS011;6053;51.382;6.768;2023-06-14T01:28:54;2.25;;;1.80;;
11986;SDS011;6053;51.382;6.768;2023-06-14T01:31:25;1.80;;;1.70;;
11986;SDS011;6053;51.382;6.768;2023-06-14T01:33:56;1.90;;;1.80;;
11986;SDS011;6053;51.382;6.768;2023-06-14T01:36:25;2.03;;;1.83;;
11986;SDS011;6053;51.382;6.768;2023-06-14T01:38:57;2.10;;;2.00;;
11986;SDS011;6053;51.382;6.768;2023-06-14T01:41:28;2.42;;;1.83;;
11986;SDS011;6053;51.382;6.768;2023-06-14T01:43:59;1.90;;;1.80;;
11986;SDS011;6053;51.382;6.768;2023-06-14T01:46:31;1.83;;;1.73;;
11986;SDS011;6053;51.382;6.768;2023-06-14T01:49:01;2.58;;;1.90;;
11986;SDS011;6053;51.382;6.768;2023-06-14T01:51:38;3.50;;;1.92;;
11986;SDS011;6053;51.382;6.768;2023-06-14T01:54:08;2.20;;;1.80;;
11986;SDS011;6053;51.382;6.768;2023-06-14T01:56:40;2.10;;;1.67;;
11986;SDS011;6053;51.382;6.768;2023-06-14T01:59:08;1.75;;;1.65;;
11986;SDS011;6053;51.382;6.768;2023-06-14T02:01:37;2.00;;;1.80;;
11986;SDS011;6053;51.382;6.768;2023-06-14T02:04:07;1.80;;;1.70;;
11986;SDS011;6053;51.382;6.768;2023-06-14T02:06:36;2.90;;;1.80;;
11986;SDS011;6053;51.382;6.768;2023-06-14T02:09:05;1.80;;;1.70;;
11986;SDS011;6053;51.382;6.768;2023-06-14T02:11:36;3.25;;;1.80;;
11986;SDS011;6053;51.382;6.768;2023-06-14T02:14:05;1.77;;;1.67;;
11986;SDS011;6053;51.382;6.768;2023-06-14T02:16:37;4.60;;;1.90;;
11986;SDS011;6053;51.382;6.768;2023-06-14T02:19:08;1.95;;;1.60;;
11986;SDS011;6053;51.382;6.768;2023-06-14T02:21:37;2.00;;;1.80;;
11986;SDS011;6053;51.382;6.768;2023-06-14T02:24:06;2.20;;;1.90;;
11986;SDS011;6053;51.382;6.768;2023-06-14T02:26:37;2.92;;;1.80;;
11986;SDS011;6053;51.382;6.768;2023-06-14T02:29:06;2.10;;;1.77;;
11986;SDS011;6053;51.382;6.768;2023-06-14T02:31:36;1.90;;;1.80;;
11986;SDS011;6053;51.382;6.768;2023-06-14T02:34:05;2.20;;;1.75;;
11986;SDS011;6053;51.382;6.768;2023-06-14T02:36:35;2.17;;;1.75;;
11986;SDS011;6053;51.382;6.768;2023-06-14T02:39:09;2.25;;;1.60;;
11986;SDS011;6053;51.382;6.768;2023-06-14T02:41:39;1.80;;;1.70;;
11986;SDS011;6053;51.382;6.768;2023-06-14T02:44:10;1.80;;;1.70;;
11986;SDS011;6053;51.382;6.768;2023-06-14T02:46:42;2.47;;;1.90;;
11986;SDS011;6053;51.382;6.768;2023-06-14T02:49:12;2.08;;;1.70;;
11986;SDS011;6053;51.382;6.768;2023-06-14T02:51:41;2.38;;;1.90;;
11986;SDS011;6053;51.382;6.768;2023-06-14T02:54:10;2.10;;;1.77;;
11986;SDS011;6053;51.382;6.768;2023-06-14T02:56:40;2.00;;;1.80;;
11986;SDS011;6053;51.382;6.768;2023-06-14T02:59:09;1.63;;;1.52;;
11986;SDS011;6053;51.382;6.768;2023-06-14T03:01:39;3.45;;;1.80;;
11986;SDS011;6053;51.382;6.768;2023-06-14T03:04:09;2.53;;;1.88;;
11986;SDS011;6053;51.382;6.768;2023-06-14T03:06:38;1.80;;;1.70;;
11986;SDS011;6053;51.382;6.768;2023-06-14T03:09:11;2.50;;;1.75;;
11986;SDS011;6053;51.382;6.768;2023-06-14T03:11:43;1.75;;;1.60;;
11986;SDS011;6053;51.382;6.768;2023-06-14T03:14:12;2.40;;;1.77;;
11986;SDS011;6053;51.382;6.768;2023-06-14T03:16:43;2.80;;;1.70;;
11986;SDS011;6053;51.382;6.768;2023-06-14T03:19:12;2.30;;;1.75;;
11986;SDS011;6053;51.382;6.768;2023-06-14T03:21:41;4.20;;;1.80;;
11986;SDS011;6053;51.382;6.768;2023-06-14T03:24:11;1.67;;;1.57;;
11986;SDS011;6053;51.382;6.768;2023-06-14T03:26:44;2.90;;;1.80;;
11986;SDS011;6053;51.382;6.768;2023-06-14T03:29:13;2.50;;;1.60;;
11986;SDS011;6053;51.382;6.768;2023-06-14T03:31:55;2.60;;;1.70;;
11986;SDS011;6053;51.382;6.768;2023-06-14T03:34:26;2.42;;;1.90;;
11986;SDS011;6053;51.382;6.768;2023-06-14T03:36:56;1.83;;;1.70;;
11986;SDS011;6053;51.382;6.768;2023-06-14T03:39:25;2.17;;;1.80;;
11986;SDS011;6053;51.382;6.768;2023-06-14T03:41:55;3.28;;;1.90;;
11986;SDS011;6053;51.382;6.768;2023-06-14T03:44:26;3.13;;;1.73;;
11986;SDS011;6053;51.382;6.768;2023-06-14T03:46:56;2.20;;;1.60;;
11986;SDS011;6053;51.382;6.768;2023-06-14T03:49:26;3.13;;;1.73;;
11986;SDS011;6053;51.382;6.768;2023-06-14T03:51:55;1.70;;;1.60;;
11986;SDS011;6053;51.382;6.768;2023-06-14T03:54:26;1.90;;;1.80;;
11986;SDS011;6053;51.382;6.768;2023-06-14T03:57:16;2.38;;;1.80;;
11986;SDS011;6053;51.382;6.768;2023-06-14T03:59:46;3.33;;;1.90;;
11986;SDS011;6053;51.382;6.768;2023-06-14T04:02:16;3.28;;;1.70;;
11986;SDS011;6053;51.382;6.768;2023-06-14T04:04:46;3.30;;;1.80;;
11986;SDS011;6053;51.382;6.768;2023-06-14T04:07:17;3.30;;;1.65;;
11986;SDS011;6053;51.382;6.768;2023-06-14T04:09:48;2.13;;;1.50;;
11986;SDS011;6053;51.382;6.768;2023-06-14T04:12:19;2.37;;;1.60;;
11986;SDS011;6053;51.382;6.768;2023-06-14T04:14:48;2.63;;;1.73;;
11986;SDS011;6053;51.382;6.768;2023-06-14T04:17:17;3.85;;;1.77;;
11986;SDS011;6053;51.382;6.768;2023-06-14T04:19:46;2.50;;;1.77;;
11986;SDS011;6053;51.382;6.768;2023-06-14T04:22:18;2.80;;;1.58;;
11986;SDS011;6053;51.382;6.768;2023-06-14T04:24:47;1.80;;;1.70;;
11986;SDS011;6053;51.382;6.768;2023-06-14T04:27:31;1.98;;;1.70;;
11986;SDS011;6053;51.382;6.768;2023-06-14T04:30:03;2.75;;;1.70;;
11986;SDS011;6053;51.382;6.768;2023-06-14T04:32:35;2.72;;;1.70;;
11986;SDS011;6053;51.382;6.768;2023-06-14T04:35:06;1.80;;;1.70;;
11986;SDS011;6053;51.382;6.768;2023-06-14T04:37:37;1.70;;;1.60;;
11986;SDS011;6053;51.382;6.768;2023-06-14T04:40:08;2.70;;;1.70;;
11986;SDS011;6053;51.382;6.768;2023-06-14T04:42:41;2.85;;;1.77;;
11986;SDS011;6053;51.382;6.768;2023-06-14T04:45:12;2.10;;;1.60;;
11986;SDS011;6053;51.382;6.768;2023-06-14T04:47:42;2.30;;;1.87;;
11986;SDS011;6053;51.382;6.768;2023-06-14T04:50:12;2.67;;;1.60;;
11986;SDS011;6053;51.382;6.768;2023-06-14T04:52:44;2.70;;;1.57;;
11986;SDS011;6053;51.382;6.768;2023-06-14T04:55:18;2.60;;;1.50;;
11986;SDS011;6053;51.382;6.768;2023-06-14T04:57:49;2.35;;;1.63;;
11986;SDS011;6053;51.382;6.768;2023-06-14T05:00:19;1.70;;;1.60;;
11986;SDS011;6053;51.382;6.768;2023-06-14T05:02:49;1.80;;;1.65;;
11986;SDS011;6053;51.382;6.768;2023-06-14T05:05:20;1.83;;;1.70;;
11986;SDS011;6053;51.382;6.768;2023-06-14T05:07:49;3.67;;;1.75;;
11986;SDS011;6053;51.382;6.768;2023-06-14T05:10:18;3.53;;;1.60;;
11986;SDS011;6053;51.382;6.768;2023-06-14T05:12:49;3.85;;;1.80;;
11986;SDS011;6053;51.382;6.768;2023-06-14T05:15:19;2.03;;;1.50;;
11986;SDS011;6053;51.382;6.768;2023-06-14T05:17:52;2.33;;;1.77;;
11986;SDS011;6053;51.382;6.768;2023-06-14T05:20:22;2.08;;;1.60;;
11986;SDS011;6053;51.382;6.768;2023-06-14T05:22:53;2.50;;;1.60;;
11986;SDS011;6053;51.382;6.768;2023-06-14T05:25:25;3.10;;;1.60;;
11986;SDS011;6053;51.382;6.768;2023-06-14T05:27:56;2.90;;;1.52;;
11986;SDS011;6053;51.382;6.768;2023-06-14T05:30:24;2.47;;;1.40;;
11986;SDS011;6053;51.382;6.768;2023-06-14T05:32:56;2.95;;;1.48;;
11986;SDS011;6053;51.382;6.768;2023-06-14T05:35:26;2.17;;;1.40;;
11986;SDS011;6053;51.382;6.768;2023-06-14T05:37:55;2.72;;;1.45;;
11986;SDS011;6053;51.382;6.768;2023-06-14T05:40:24;1.67;;;1.57;;
11986;SDS011;6053;51.382;6.768;2023-06-14T05:42:53;2.70;;;1.60;;
11986;SDS011;6053;51.382;6.768;2023-06-14T05:45:24;1.40;;;1.30;;
11986;SDS011;6053;51.382;6.768;2023-06-14T05:47:53;2.00;;;1.50;;
11986;SDS011;6053;51.382;6.768;2023-06-14T05:50:22;2.45;;;1.50;;
11986;SDS011;6053;51.382;6.768;2023-06-14T05:52:51;1.50;;;1.40;;
11986;SDS011;6053;51.382;6.768;2023-06-14T05:55:21;2.88;;;1.30;;
11986;SDS011;6053;51.382;6.768;2023-06-14T05:57:51;1.63;;;1.40;;
11986;SDS011;6053;51.382;6.768;2023-06-14T06:00:23;1.85;;;1.45;;
11986;SDS011;6053;51.382;6.768;2023-06-14T06:02:52;1.73;;;1.40;;
11986;SDS011;6053;51.382;6.768;2023-06-14T06:05:24;2.65;;;1.45;;
11986;SDS011;6053;51.382;6.768;2023-06-14T06:07:53;4.20;;;1.33;;
11986;SDS011;6053;51.382;6.768;2023-06-14T06:10:23;1.20;;;1.17;;
11986;SDS011;6053;51.382;6.768;2023-06-14T06:12:52;2.80;;;1.35;;
11986;SDS011;6053;51.382;6.768;2023-06-14T06:15:23;2.80;;;1.40;;
11986;SDS011;6053;51.382;6.768;2023-06-14T06:17:52;3.00;;;1.50;;
11986;SDS011;6053;51.382;6.768;2023-06-14T06:20:22;1.40;;;1.30;;
11986;SDS011;6053;51.382;6.768;2023-06-14T06:22:56;1.40;;;1.30;;
11986;SDS011;6053;51.382;6.768;2023-06-14T06:25:27;2.10;;;1.30;;
11986;SDS011;6053;51.382;6.768;2023-06-14T06:27:58;2.55;;;1.20;;
11986;SDS011;6053;51.382;6.768;2023-06-14T06:30:29;1.97;;;1.30;;
11986;SDS011;6053;51.382;6.768;2023-06-14T06:32:58;1.50;;;1.38;;
11986;SDS011;6053;51.382;6.768;2023-06-14T06:35:27;4.40;;;1.50;;
11986;SDS011;6053;51.382;6.768;2023-06-14T06:37:57;3.00;;;1.30;;
11986;SDS011;6053;51.382;6.768;2023-06-14T06:40:26;1.80;;;1.20;;
11986;SDS011;6053;51.382;6.768;2023-06-14T06:42:56;3.75;;;1.33;;
11986;SDS011;6053;51.382;6.768;2023-06-14T06:45:25;1.40;;;1.17;;
11986;SDS011;6053;51.382;6.768;2023-06-14T06:47:56;2.47;;;1.10;;
11986;SDS011;6053;51.382;6.768;2023-06-14T06:50:25;1.27;;;1.20;;
11986;SDS011;6053;51.382;6.768;2023-06-14T06:52:56;11.98;;;2.80;;
11986;SDS011;6053;51.382;6.768;2023-06-14T06:55:25;2.40;;;1.20;;
11986;SDS011;6053;51.382;6.768;2023-06-14T06:57:53;1.90;;;1.20;;
11986;SDS011;6053;51.382;6.768;2023-06-14T07:00:24;1.05;;;0.95;;
11986;SDS011;6053;51.382;6.768;2023-06-14T07:02:54;2.83;;;1.08;;
11986;SDS011;6053;51.382;6.768;2023-06-14T07:05:27;1.10;;;1.00;;
11986;SDS011;6053;51.382;6.768;2023-06-14T07:08:00;1.02;;;1.00;;
11986;SDS011;6053;51.382;6.768;2023-06-14T07:10:33;2.00;;;0.95;;
11986;SDS011;6053;51.382;6.768;2023-06-14T07:13:04;1.50;;;0.75;;
11986;SDS011;6053;51.382;6.768;2023-06-14T07:15:35;3.60;;;0.80;;
11986;SDS011;6053;51.382;6.768;2023-06-14T07:18:04;1.67;;;0.87;;
11986;SDS011;6053;51.382;6.768;2023-06-14T07:20:35;0.85;;;0.80;;
11986;SDS011;6053;51.382;6.768;2023-06-14T07:23:05;0.90;;;0.90;;
11986;SDS011;6053;51.382;6.768;2023-06-14T07:25:33;1.70;;;1.02;;
11986;SDS011;6053;51.382;6.768;2023-06-14T07:28:05;0.80;;;0.80;;
11986;SDS011;6053;51.382;6.768;2023-06-14T07:30:38;1.38;;;0.70;;
11986;SDS011;6053;51.382;6.768;2023-06-14T07:33:10;1.60;;;0.65;;
11986;SDS011;6053;51.382;6.768;2023-06-14T07:35:42;2.60;;;0.80;;
11986;SDS011;6053;51.382;6.768;2023-06-14T07:38:14;3.10;;;0.85;;
11986;SDS011;6053;51.382;6.768;2023-06-14T07:40:43;1.80;;;0.85;;
11986;SDS011;6053;51.382;6.768;2023-06-14T07:43:12;2.30;;;0.80;;
11986;SDS011;6053;51.382;6.768;2023-06-14T07:45:42;3.55;;;0.95;;
11986;SDS011;6053;51.382;6.768;2023-06-14T07:48:31;0.90;;;0.75;;
11986;SDS011;6053;51.382;6.768;2023-06-14T07:51:04;1.15;;;0.80;;
11986;SDS011;6053;51.382;6.768;2023-06-14T07:53:33;1.75;;;0.93;;
11986;SDS011;6053;51.382;6.768;2023-06-14T07:56:03;0.90;;;0.90;;
11986;SDS011;6053;51.382;6.768;2023-06-14T07:58:32;1.83;;;0.88;;
11986;SDS011;6053;51.382;6.768;2023-06-14T08:01:02;0.75;;;0.75;;
11986;SDS011;6053;51.382;6.768;2023-06-14T08:03:34;2.20;;;0.60;;
11986;SDS011;6053;51.382;6.768;2023-06-14T08:06:05;1.50;;;0.85;;
11986;SDS011;6053;51.382;6.768;2023-06-14T08:08:35;2.13;;;1.05;;
11986;SDS011;6053;51.382;6.768;2023-06-14T08:11:03;1.00;;;0.70;;
11986;SDS011;6053;51.382;6.768;2023-06-14T08:13:33;1.10;;;0.80;;
11986;SDS011;6053;51.382;6.768;2023-06-14T08:16:03;3.40;;;0.73;;
11986;SDS011;6053;51.382;6.768;2023-06-14T08:18:33;2.00;;;0.80;;
11986;SDS011;6053;51.382;6.768;2023-06-14T08:21:06;1.30;;;0.80;;
11986;SDS011;6053;51.382;6.768;2023-06-14T08:23:34;1.10;;;0.73;;
11986;SDS011;6053;51.382;6.768;2023-06-14T08:26:04;0.60;;;0.60;;
11986;SDS011;6053;51.382;6.768;2023-06-14T08:28:33;3.30;;;0.80;;
11986;SDS011;6053;51.382;6.768;2023-06-14T08:31:02;1.90;;;1.00;;
11986;SDS011;6053;51.382;6.768;2023-06-14T08:33:37;0.97;;;0.67;;
11986;SDS011;6053;51.382;6.768;2023-06-14T08:36:13;0.90;;;0.75;;
11986;SDS011;6053;51.382;6.768;2023-06-14T08:38:42;2.58;;;0.80;;
11986;SDS011;6053;51.382;6.768;2023-06-14T08:41:11;1.90;;;0.80;;
11986;SDS011;6053;51.382;6.768;2023-06-14T08:43:47;0.88;;;0.75;;
11986;SDS011;6053;51.382;6.768;2023-06-14T08:46:17;1.90;;;0.63;;
11986;SDS011;6053;51.382;6.768;2023-06-14T08:48:49;3.30;;;0.68;;
11986;SDS011;6053;51.382;6.768;2023-06-14T08:51:21;2.05;;;0.90;;
11986;SDS011;6053;51.382;6.768;2023-06-14T08:53:54;0.60;;;0.50;;
11986;SDS011;6053;51.382;6.768;2023-06-14T08:56:25;2.17;;;0.70;;
11986;SDS011;6053;51.382;6.768;2023-06-14T08:58:56;0.68;;;0.68;;
11986;SDS011;6053;51.382;6.768;2023-06-14T09:01:33;0.95;;;0.50;;
11986;SDS011;6053;51.382;6.768;2023-06-14T09:04:05;2.90;;;0.60;;
11986;SDS011;6053;51.382;6.768;2023-06-14T09:06:36;2.45;;;0.65;;
11986;SDS011;6053;51.382;6.768;2023-06-14T09:09:04;0.50;;;0.50;;
11986;SDS011;6053;51.382;6.768;2023-06-14T09:11:34;3.50;;;0.93;;
11986;SDS011;6053;51.382;6.768;2023-06-14T09:14:03;1.50;;;0.90;;
11986;SDS011;6053;51.382;6.768;2023-06-14T09:16:32;1.73;;;0.65;;
11986;SDS011;6053;51.382;6.768;2023-06-14T09:19:01;0.70;;;0.70;;
11986;SDS011;6053;51.382;6.768;2023-06-14T09:21:32;1.17;;;0.70;;
11986;SDS011;6053;51.382;6.768;2023-06-14T09:24:04;1.60;;;0.80;;
11986;SDS011;6053;51.382;6.768;2023-06-14T09:26:35;1.88;;;0.80;;
11986;SDS011;6053;51.382;6.768;2023-06-14T09:29:08;1.25;;;0.80;;
11986;SDS011;6053;51.382;6.768;2023-06-14T09:31:38;1.70;;;0.80;;
11986;SDS011;6053;51.382;6.768;2023-06-14T09:34:07;1.80;;;1.05;;
11986;SDS011;6053;51.382;6.768;2023-06-14T09:36:38;1.00;;;0.57;;
11986;SDS011;6053;51.382;6.768;2023-06-14T09:39:11;0.73;;;0.40;;
11986;SDS011;6053;51.382;6.768;2023-06-14T09:41:46;0.80;;;0.63;;
11986;SDS011;6053;51.382;6.768;2023-06-14T09:44:15;2.50;;;0.88;;
11986;SDS011;6053;51.382;6.768;2023-06-14T09:46:47;1.90;;;0.77;;
11986;SDS011;6053;51.382;6.768;2023-06-14T09:49:17;1.98;;;0.70;;
11986;SDS011;6053;51.382;6.768;2023-06-14T09:51:49;0.70;;;0.70;;
11986;SDS011;6053;51.382;6.768;2023-06-14T09:54:22;0.65;;;0.65;;
11986;SDS011;6053;51.382;6.768;2023-06-14T09:56:53;0.90;;;0.50;;
11986;SDS011;6053;51.382;6.768;2023-06-14T09:59:26;1.10;;;0.50;;
11986;SDS011;6053;51.382;6.768;2023-06-14T10:02:04;0.75;;;0.50;;
11986;SDS011;6053;51.382;6.768;2023-06-14T10:04:46;2.80;;;0.63;;
11986;SDS011;6053;51.382;6.768;2023-06-14T10:07:26;1.17;;;0.40;;
11986;SDS011;6053;51.382;6.768;2023-06-14T10:09:58;0.60;;;0.60;;
11986;SDS011;6053;51.382;6.768;2023-06-14T10:12:28;0.50;;;0.50;;
11986;SDS011;6053;51.382;6.768;2023-06-14T10:15:02;1.87;;;0.60;;
11986;SDS011;6053;51.382;6.768;2023-06-14T10:17:35;2.70;;;0.43;;
11986;SDS011;6053;51.382;6.768;2023-06-14T10:20:15;2.13;;;0.60;;
11986;SDS011;6053;51.382;6.768;2023-06-14T10:22:58;0.87;;;0.57;;
11986;SDS011;6053;51.382;6.768;2023-06-14T10:25:31;0.60;;;0.57;;
11986;SDS011;6053;51.382;6.768;2023-06-14T10:28:14;1.90;;;0.30;;
11986;SDS011;6053;51.382;6.768;2023-06-14T10:33:39;0.55;;;0.55;;
11986;SDS011;6053;51.382;6.768;2023-06-14T10:36:27;0.73;;;0.55;;
11986;SDS011;6053;51.382;6.768;2023-06-14T10:39:00;1.25;;;0.50;;
11986;SDS011;6053;51.382;6.768;2023-06-14T10:41:35;1.70;;;0.38;;
11986;SDS011;6053;51.382;6.768;2023-06-14T10:47:20;0.40;;;0.40;;
11986;SDS011;6053;51.382;6.768;2023-06-14T10:49:54;1.15;;;0.45;;
11986;SDS011;6053;51.382;6.768;2023-06-14T10:52:28;0.50;;;0.30;;
11986;SDS011;6053;51.382;6.768;2023-06-14T10:55:03;2.90;;;0.40;;
11986;SDS011;6053;51.382;6.768;2023-06-14T10:57:38;1.40;;;0.60;;
11986;SDS011;6053;51.382;6.768;2023-06-14T11:00:18;0.80;;;0.40;;
11986;SDS011;6053;51.382;6.768;2023-06-14T11:06:21;2.05;;;0.40;;
11986;SDS011;6053;51.382;6.768;2023-06-14T11:08:56;0.88;;;0.47;;
11986;SDS011;6053;51.382;6.768;2023-06-14T11:12:15;0.33;;;0.33;;
11986;SDS011;6053;51.382;6.768;2023-06-14T11:14:46;1.33;;;0.40;;
11986;SDS011;6053;51.382;6.768;2023-06-14T11:17:15;0.50;;;0.50;;
11986;SDS011;6053;51.382;6.768;2023-06-14T11:19:44;0.75;;;0.38;;
11986;SDS011;6053;51.382;6.768;2023-06-14T11:22:14;1.38;;;0.30;;
11986;SDS011;6053;51.382;6.768;2023-06-14T11:24:43;0.80;;;0.47;;
11986;SDS011;6053;51.382;6.768;2023-06-14T11:27:13;1.50;;;0.60;;
11986;SDS011;6053;51.382;6.768;2023-06-14T11:29:47;2.50;;;0.60;;
11986;SDS011;6053;51.382;6.768;2023-06-14T11:32:18;0.47;;;0.47;;
11986;SDS011;6053;51.382;6.768;2023-06-14T11:34:47;1.93;;;0.57;;
11986;SDS011;6053;51.382;6.768;2023-06-14T11:37:17;0.40;;;0.40;;
11986;SDS011;6053;51.382;6.768;2023-06-14T11:39:47;0.80;;;0.43;;
11986;SDS011;6053;51.382;6.768;2023-06-14T11:42:21;0.63;;;0.50;;
11986;SDS011;6053;51.382;6.768;2023-06-14T11:44:52;0.88;;;0.40;;
11986;SDS011;6053;51.382;6.768;2023-06-14T11:47:41;0.70;;;0.50;;
11986;SDS011;6053;51.382;6.768;2023-06-14T11:50:13;3.10;;;0.60;;
11986;SDS011;6053;51.382;6.768;2023-06-14T11:52:43;0.70;;;0.38;;
11986;SDS011;6053;51.382;6.768;2023-06-14T11:55:12;1.70;;;0.50;;
11986;SDS011;6053;51.382;6.768;2023-06-14T11:57:46;1.48;;;0.55;;
11986;SDS011;6053;51.382;6.768;2023-06-14T12:00:15;0.53;;;0.33;;
11986;SDS011;6053;51.382;6.768;2023-06-14T12:02:56;1.10;;;0.40;;
11986;SDS011;6053;51.382;6.768;2023-06-14T12:05:25;2.55;;;0.45;;
11986;SDS011;6053;51.382;6.768;2023-06-14T12:07:58;0.40;;;0.40;;
11986;SDS011;6053;51.382;6.768;2023-06-14T12:10:29;1.02;;;0.50;;
11986;SDS011;6053;51.382;6.768;2023-06-14T12:13:16;0.35;;;0.30;;
11986;SDS011;6053;51.382;6.768;2023-06-14T12:15:53;1.77;;;0.50;;
11986;SDS011;6053;51.382;6.768;2023-06-14T12:18:31;1.65;;;0.50;;
11986;SDS011;6053;51.382;6.768;2023-06-14T12:21:02;0.50;;;0.35;;
11986;SDS011;6053;51.382;6.768;2023-06-14T12:23:40;1.02;;;0.50;;
11986;SDS011;6053;51.382;6.768;2023-06-14T12:26:12;1.13;;;0.40;;
11986;SDS011;6053;51.382;6.768;2023-06-14T12:28:44;0.90;;;0.35;;
11986;SDS011;6053;51.382;6.768;2023-06-14T12:31:16;1.60;;;0.50;;
11986;SDS011;6053;51.382;6.768;2023-06-14T12:33:46;3.15;;;0.52;;
11986;SDS011;6053;51.382;6.768;2023-06-14T12:36:16;1.55;;;0.50;;
11986;SDS011;6053;51.382;6.768;2023-06-14T12:38:45;2.40;;;0.50;;
11986;SDS011;6053;51.382;6.768;2023-06-14T12:41:17;0.73;;;0.40;;
11986;SDS011;6053;51.382;6.768;2023-06-14T12:43:49;0.90;;;0.50;;
11986;SDS011;6053;51.382;6.768;2023-06-14T12:46:18;1.10;;;0.40;;
11986;SDS011;6053;51.382;6.768;2023-06-14T12:48:48;1.10;;;0.30;;
11986;SDS011;6053;51.382;6.768;2023-06-14T12:51:20;2.65;;;0.50;;
11986;SDS011;6053;51.382;6.768;2023-06-14T12:53:49;1.90;;;0.50;;
11986;SDS011;6053;51.382;6.768;2023-06-14T12:56:18;1.00;;;0.57;;
11986;SDS011;6053;51.382;6.768;2023-06-14T12:58:52;1.77;;;0.40;;
11986;SDS011;6053;51.382;6.768;2023-06-14T13:01:23;0.90;;;0.75;;
11986;SDS011;6053;51.382;6.768;2023-06-14T13:03:52;7.60;;;1.35;;
11986;SDS011;6053;51.382;6.768;2023-06-14T13:06:21;1.60;;;0.70;;
11986;SDS011;6053;51.382;6.768;2023-06-14T13:08:53;1.40;;;0.60;;
11986;SDS011;6053;51.382;6.768;2023-06-14T13:11:24;1.60;;;0.40;;
11986;SDS011;6053;51.382;6.768;2023-06-14T13:13:56;0.40;;;0.40;;
11986;SDS011;6053;51.382;6.768;2023-06-14T13:16:27;1.17;;;0.47;;
11986;SDS011;6053;51.382;6.768;2023-06-14T13:18:56;0.50;;;0.47;;
11986;SDS011;6053;51.382;6.768;2023-06-14T13:21:25;0.57;;;0.43;;
11986;SDS011;6053;51.382;6.768;2023-06-14T13:23:54;1.77;;;0.50;;
11986;SDS011;6053;51.382;6.768;2023-06-14T13:26:23;1.20;;;0.55;;
11986;SDS011;6053;51.382;6.768;2023-06-14T13:28:57;0.80;;;0.55;;
11986;SDS011;6053;51.382;6.768;2023-06-14T13:31:26;0.73;;;0.47;;
11986;SDS011;6053;51.382;6.768;2023-06-14T13:33:55;1.20;;;0.55;;
11986;SDS011;6053;51.382;6.768;2023-06-14T13:36:24;1.55;;;0.50;;
11986;SDS011;6053;51.382;6.768;2023-06-14T13:38:53;0.83;;;0.60;;
11986;SDS011;6053;51.382;6.768;2023-06-14T13:41:22;0.50;;;0.50;;
11986;SDS011;6053;51.382;6.768;2023-06-14T13:43:52;1.65;;;0.60;;
11986;SDS011;6053;51.382;6.768;2023-06-14T13:46:23;0.80;;;0.47;;
11986;SDS011;6053;51.382;6.768;2023-06-14T13:48:53;2.80;;;0.60;;
11986;SDS011;6053;51.382;6.768;2023-06-14T13:51:21;1.27;;;0.60;;
11986;SDS011;6053;51.382;6.768;2023-06-14T13:53:59;1.00;;;0.67;;
11986;SDS011;6053;51.382;6.768;2023-06-14T13:56:29;0.70;;;0.67;;
11986;SDS011;6053;51.382;6.768;2023-06-14T13:58:58;1.80;;;0.60;;
11986;SDS011;6053;51.382;6.768;2023-06-14T14:01:31;1.07;;;0.67;;
11986;SDS011;6053;51.382;6.768;2023-06-14T14:04:00;1.75;;;0.60;;
11986;SDS011;6053;51.382;6.768;2023-06-14T14:06:29;0.55;;;0.52;;
11986;SDS011;6053;51.382;6.768;2023-06-14T14:08:58;0.60;;;0.60;;
11986;SDS011;6053;51.382;6.768;2023-06-14T14:11:29;1.08;;;0.60;;
11986;SDS011;6053;51.382;6.768;2023-06-14T14:13:59;1.20;;;0.50;;
11986;SDS011;6053;51.382;6.768;2023-06-14T14:16:28;3.17;;;0.67;;
11986;SDS011;6053;51.382;6.768;2023-06-14T14:19:00;1.80;;;0.50;;
11986;SDS011;6053;51.382;6.768;2023-06-14T14:21:31;1.92;;;0.60;;
11986;SDS011;6053;51.382;6.768;2023-06-14T14:24:00;0.50;;;0.50;;
11986;SDS011;6053;51.382;6.768;2023-06-14T14:26:29;1.70;;;0.60;;
11986;SDS011;6053;51.382;6.768;2023-06-14T14:29:00;1.10;;;0.63;;
11986;SDS011;6053;51.382;6.768;2023-06-14T14:31:29;0.63;;;0.50;;
11986;SDS011;6053;51.382;6.768;2023-06-14T14:34:03;0.85;;;0.60;;
11986;SDS011;6053;51.382;6.768;2023-06-14T14:36:32;0.90;;;0.50;;
11986;SDS011;6053;51.382;6.768;2023-06-14T14:39:04;1.40;;;0.50;;
11986;SDS011;6053;51.382;6.768;2023-06-14T14:41:33;3.30;;;0.63;;
11986;SDS011;6053;51.382;6.768;2023-06-14T14:44:07;1.30;;;0.63;;
11986;SDS011;6053;51.382;6.768;2023-06-14T14:46:39;0.80;;;0.60;;
11986;SDS011;6053;51.382;6.768;2023-06-14T14:49:10;0.68;;;0.68;;
11986;SDS011;6053;51.382;6.768;2023-06-14T14:51:39;1.92;;;0.68;;
11986;SDS011;6053;51.382;6.768;2023-06-14T14:54:08;2.45;;;0.60;;
11986;SDS011;6053;51.382;6.768;2023-06-14T14:56:38;1.87;;;0.60;;
11986;SDS011;6053;51.382;6.768;2023-06-14T14:59:07;0.70;;;0.70;;
11986;SDS011;6053;51.382;6.768;2023-06-14T15:01:52;1.65;;;0.57;;
11986;SDS011;6053;51.382;6.768;2023-06-14T15:04:21;0.90;;;0.50;;
11986;SDS011;6053;51.382;6.768;2023-06-14T15:06:51;1.58;;;0.60;;
11986;SDS011;6053;51.382;6.768;2023-06-14T15:09:20;0.65;;;0.60;;
11986;SDS011;6053;51.382;6.768;2023-06-14T15:11:49;3.05;;;0.63;;
11986;SDS011;6053;51.382;6.768;2023-06-14T15:14:18;2.13;;;0.80;;
11986;SDS011;6053;51.382;6.768;2023-06-14T15:16:47;1.58;;;0.60;;
11986;SDS011;6053;51.382;6.768;2023-06-14T15:19:18;1.00;;;0.70;;
11986;SDS011;6053;51.382;6.768;2023-06-14T15:21:47;1.90;;;0.60;;
11986;SDS011;6053;51.382;6.768;2023-06-14T15:24:16;1.17;;;0.60;;
11986;SDS011;6053;51.382;6.768;2023-06-14T15:27:00;1.15;;;0.52;;
11986;SDS011;6053;51.382;6.768;2023-06-14T15:29:31;1.20;;;0.60;;
11986;SDS011;6053;51.382;6.768;2023-06-14T15:32:02;1.20;;;0.57;;
11986;SDS011;6053;51.382;6.768;2023-06-14T15:34:33;1.85;;;0.50;;
11986;SDS011;6053;51.382;6.768;2023-06-14T15:37:04;0.77;;;0.60;;